Time;durP1;ratioP1;P1;durP2;ratioP2;P2;SDS_P1;SDS_P2;PMS_P1;PMS_P2;Temp;Humidity;BMP_temperature;BMP_pressure;BME280_temperature;BME280_humidity;BME280_pressure;Samples;Min_cycle;Max_cycle;Signal;HPM_P1;HPM_P2
2024/01/03 00:01:03;;;;;;;20.25;4.32;;;;;;;;;;4920641;29;20062;-73
2024/01/03 00:03:31;;;;;;;28.02;3.25;;;;;;;;;;4884668;29;20489;-73
2024/01/03 00:05:59;;;;;;;19.55;3.63;;;;;;;;;;4933690;29;20491;-73
2024/01/03 00:08:26;;;;;;;24.25;3.30;;;;;;;;;;4936357;29;20047;-73
2024/01/03 00:10:54;;;;;;;17.92;3.47;;;;;;;;;;4934877;29;20078;-73
2024/01/03 00:13:57;;;;;;;17.80;3.67;;;;;;;;;;4919905;29;20087;-74
2024/01/03 00:16:23;;;;;;;15.25;3.30;;;;;;;;;;4921173;29;20055;-73
2024/01/03 00:18:58;;;;;;;20.35;3.75;;;;;;;;;;4936147;29;20039;-73
2024/01/03 00:21:29;;;;;;;19.58;2.80;;;;;;;;;;4919891;29;20400;-73
2024/01/03 00:24:04;;;;;;;21.40;3.50;;;;;;;;;;4919012;29;20437;-73
2024/01/03 00:26:30;;;;;;;26.27;4.28;;;;;;;;;;4920111;29;20339;-73
2024/01/03 00:28:57;;;;;;;27.02;3.78;;;;;;;;;;4919436;29;20477;-73
2024/01/03 00:31:41;;;;;;;29.75;4.72;;;;;;;;;;4933568;29;20090;-73
2024/01/03 00:34:28;;;;;;;33.60;5.30;;;;;;;;;;4935846;29;20086;-73
2024/01/03 00:36:55;;;;;;;23.80;4.65;;;;;;;;;;4936074;29;20512;-73
2024/01/03 00:39:27;;;;;;;24.30;3.88;;;;;;;;;;4922113;29;20071;-73
2024/01/03 00:41:54;;;;;;;18.88;3.55;;;;;;;;;;4922571;29;20118;-75
2024/01/03 00:44:20;;;;;;;26.02;4.72;;;;;;;;;;4904005;29;20047;-74
2024/01/03 00:46:47;;;;;;;17.60;3.50;;;;;;;;;;4922312;29;20043;-74
2024/01/03 00:49:13;;;;;;;19.00;4.90;;;;;;;;;;4935935;28;20054;-74
2024/01/03 00:51:39;;;;;;;23.42;4.30;;;;;;;;;;4935113;28;20130;-74
2024/01/03 00:54:06;;;;;;;22.35;4.20;;;;;;;;;;4934623;29;20079;-74
2024/01/03 00:56:32;;;;;;;22.23;3.17;;;;;;;;;;4937549;29;20150;-74
2024/01/03 00:58:58;;;;;;;26.08;5.20;;;;;;;;;;4935147;29;20499;-74
2024/01/03 01:01:24;;;;;;;22.77;3.45;;;;;;;;;;4923543;29;20036;-74
2024/01/03 01:03:50;;;;;;;24.27;3.95;;;;;;;;;;4919481;29;20048;-74
2024/01/03 01:06:16;;;;;;;21.83;3.65;;;;;;;;;;4919301;29;20054;-74
2024/01/03 01:08:42;;;;;;;22.17;4.38;;;;;;;;;;4899451;29;20039;-74
2024/01/03 01:11:08;;;;;;;20.95;4.03;;;;;;;;;;4938748;29;20085;-74
2024/01/03 01:13:34;;;;;;;15.95;3.45;;;;;;;;;;4924177;29;20095;-74
2024/01/03 01:16:00;;;;;;;25.48;4.35;;;;;;;;;;4907496;29;20075;-74
2024/01/03 01:18:26;;;;;;;22.55;3.13;;;;;;;;;;4916875;28;20042;-74
2024/01/03 01:20:52;;;;;;;31.92;3.55;;;;;;;;;;4939348;29;20043;-74
2024/01/03 01:23:18;;;;;;;22.08;4.30;;;;;;;;;;4939012;29;20050;-74
2024/01/03 01:25:44;;;;;;;20.17;3.75;;;;;;;;;;4939213;29;20043;-75
2024/01/03 01:28:10;;;;;;;21.48;4.55;;;;;;;;;;4937673;29;20057;-75
2024/01/03 01:30:37;;;;;;;35.92;5.57;;;;;;;;;;4933581;29;20040;-74
2024/01/03 01:33:03;;;;;;;23.98;3.70;;;;;;;;;;4906090;29;20056;-74
2024/01/03 01:35:29;;;;;;;19.77;3.47;;;;;;;;;;4907067;29;20488;-74
2024/01/03 01:37:55;;;;;;;28.13;4.28;;;;;;;;;;4905876;29;20098;-74
2024/01/03 01:40:21;;;;;;;18.50;2.95;;;;;;;;;;4935628;29;20032;-74
2024/01/03 01:42:47;;;;;;;15.85;4.00;;;;;;;;;;4937552;29;20046;-74
2024/01/03 01:45:13;;;;;;;12.35;2.45;;;;;;;;;;4938425;29;20125;-74
2024/01/03 01:47:40;;;;;;;20.83;3.42;;;;;;;;;;4940383;28;20122;-74
2024/01/03 01:50:07;;;;;;;23.88;3.97;;;;;;;;;;4939886;29;20047;-74
2024/01/03 01:52:33;;;;;;;20.02;3.90;;;;;;;;;;4909197;29;20045;-74
2024/01/03 01:54:59;;;;;;;17.42;2.88;;;;;;;;;;4939710;29;20043;-75
2024/01/03 01:57:26;;;;;;;12.90;2.72;;;;;;;;;;4940504;29;20090;-74
2024/01/03 01:59:52;;;;;;;20.15;3.03;;;;;;;;;;4939772;29;20043;-74
2024/01/03 02:02:21;;;;;;;22.02;4.03;;;;;;;;;;4940024;29;20043;-74
2024/01/03 02:04:47;;;;;;;18.15;2.92;;;;;;;;;;4931488;29;20522;-74
2024/01/03 02:07:14;;;;;;;13.95;2.47;;;;;;;;;;4924866;29;20531;-74
2024/01/03 02:09:42;;;;;;;18.50;3.25;;;;;;;;;;4937966;29;20075;-74
2024/01/03 02:12:09;;;;;;;15.23;2.60;;;;;;;;;;4939952;29;20491;-74
2024/01/03 02:14:35;;;;;;;14.85;2.80;;;;;;;;;;4934373;29;20051;-74
2024/01/03 02:17:02;;;;;;;15.32;2.97;;;;;;;;;;4920856;29;20075;-74
2024/01/03 02:19:28;;;;;;;17.98;2.67;;;;;;;;;;4920247;29;20050;-74
2024/01/03 02:21:54;;;;;;;15.52;3.00;;;;;;;;;;4920069;29;20043;-74
2024/01/03 02:24:20;;;;;;;14.63;2.38;;;;;;;;;;4920824;29;20051;-74
2024/01/03 02:26:46;;;;;;;15.50;3.22;;;;;;;;;;4939798;29;20058;-74
2024/01/03 02:29:12;;;;;;;26.27;4.15;;;;;;;;;;4939628;29;20046;-74
2024/01/03 02:31:39;;;;;;;15.95;2.97;;;;;;;;;;4939099;29;20053;-75
2024/01/03 02:34:06;;;;;;;13.25;2.30;;;;;;;;;;4922682;29;20112;-75
2024/01/03 02:36:32;;;;;;;16.10;2.63;;;;;;;;;;4930175;29;20040;-74
2024/01/03 02:38:58;;;;;;;11.30;2.33;;;;;;;;;;4936388;29;20071;-74
2024/01/03 02:41:24;;;;;;;15.68;2.78;;;;;;;;;;4923736;29;20065;-74
2024/01/03 02:43:51;;;;;;;15.15;3.38;;;;;;;;;;4939440;28;20043;-74
2024/01/03 02:46:21;;;;;;;11.85;2.90;;;;;;;;;;4939438;29;20097;-74
2024/01/03 02:48:47;;;;;;;19.08;3.55;;;;;;;;;;4908165;29;20432;-74
2024/01/03 02:51:22;;;;;;;15.77;2.55;;;;;;;;;;4932032;29;20483;-74
2024/01/03 02:53:49;;;;;;;11.35;3.05;;;;;;;;;;4920232;29;20489;-74
2024/01/03 02:56:15;;;;;;;16.58;2.88;;;;;;;;;;4911893;29;20061;-74
2024/01/03 02:58:41;;;;;;;13.85;2.33;;;;;;;;;;4939404;29;20464;-74
2024/01/03 03:01:07;;;;;;;13.15;2.50;;;;;;;;;;4938777;29;20369;-74
2024/01/03 03:03:33;;;;;;;14.43;2.53;;;;;;;;;;4929217;29;20143;-75
2024/01/03 03:06:00;;;;;;;12.07;2.17;;;;;;;;;;4905917;29;20082;-74
2024/01/03 03:08:26;;;;;;;12.93;2.35;;;;;;;;;;4920037;29;20055;-75
2024/01/03 03:10:52;;;;;;;18.38;2.78;;;;;;;;;;4920574;29;20396;-76
2024/01/03 03:13:18;;;;;;;12.35;2.42;;;;;;;;;;4938823;28;20050;-74
2024/01/03 03:15:46;;;;;;;13.55;2.47;;;;;;;;;;4938658;29;20039;-75
2024/01/03 03:18:12;;;;;;;17.27;2.40;;;;;;;;;;4907176;29;20054;-75
2024/01/03 03:20:44;;;;;;;13.80;2.33;;;;;;;;;;4935811;29;20424;-75
2024/01/03 03:23:10;;;;;;;14.52;2.58;;;;;;;;;;4936244;29;20097;-74
2024/01/03 03:25:36;;;;;;;14.20;2.60;;;;;;;;;;4938624;28;20039;-75
2024/01/03 03:28:07;;;;;;;13.68;2.75;;;;;;;;;;4938000;29;20130;-74
2024/01/03 03:30:34;;;;;;;11.43;2.40;;;;;;;;;;4938216;29;20047;-74
2024/01/03 03:33:00;;;;;;;15.05;2.75;;;;;;;;;;4934241;29;20056;-75
2024/01/03 03:35:26;;;;;;;12.25;2.40;;;;;;;;;;4902611;29;20056;-74
2024/01/03 03:37:52;;;;;;;9.98;2.53;;;;;;;;;;4919623;29;20052;-74
2024/01/03 03:40:18;;;;;;;12.48;2.00;;;;;;;;;;4894620;29;20102;-74
2024/01/03 03:42:48;;;;;;;11.25;2.42;;;;;;;;;;4924577;29;20043;-75
2024/01/03 03:45:15;;;;;;;15.43;3.13;;;;;;;;;;4917943;29;20043;-75
2024/01/03 03:47:41;;;;;;;13.00;2.90;;;;;;;;;;4928780;29;20055;-75
2024/01/03 03:50:07;;;;;;;15.65;2.80;;;;;;;;;;4916421;29;20111;-74
2024/01/03 03:52:34;;;;;;;12.90;2.83;;;;;;;;;;4919134;29;20055;-75
2024/01/03 03:55:00;;;;;;;12.60;3.03;;;;;;;;;;4916695;29;20075;-75
2024/01/03 03:57:27;;;;;;;13.27;2.28;;;;;;;;;;4918216;29;20040;-74
2024/01/03 03:59:53;;;;;;;11.45;2.30;;;;;;;;;;4935159;29;20036;-74
2024/01/03 04:02:19;;;;;;;12.35;2.28;;;;;;;;;;4934132;29;20035;-75
2024/01/03 04:04:45;;;;;;;16.40;2.63;;;;;;;;;;4933239;29;20039;-74
2024/01/03 04:07:11;;;;;;;12.27;2.30;;;;;;;;;;4917480;29;20074;-74
2024/01/03 04:09:37;;;;;;;14.15;2.00;;;;;;;;;;4933138;29;20040;-74
2024/01/03 04:12:03;;;;;;;13.65;3.15;;;;;;;;;;4919256;29;20048;-74
2024/01/03 04:14:29;;;;;;;14.02;3.17;;;;;;;;;;4934441;29;20040;-74
2024/01/03 04:16:55;;;;;;;10.43;2.10;;;;;;;;;;4903446;29;20051;-74
2024/01/03 04:19:22;;;;;;;17.00;2.85;;;;;;;;;;4917803;29;20039;-74
2024/01/03 04:21:48;;;;;;;10.52;2.20;;;;;;;;;;4900393;29;20066;-74
2024/01/03 04:24:14;;;;;;;10.68;1.83;;;;;;;;;;4926767;29;20047;-74
2024/01/03 04:26:40;;;;;;;10.80;3.30;;;;;;;;;;4921559;29;20064;-74
2024/01/03 04:29:08;;;;;;;16.45;2.03;;;;;;;;;;4930870;29;20138;-73
2024/01/03 04:31:34;;;;;;;13.23;2.00;;;;;;;;;;4919641;29;20074;-73
2024/01/03 04:34:00;;;;;;;10.88;1.92;;;;;;;;;;4917107;29;20466;-73
2024/01/03 04:36:26;;;;;;;7.78;2.05;;;;;;;;;;4921855;29;20043;-73
2024/01/03 04:38:52;;;;;;;15.35;2.75;;;;;;;;;;4937129;29;20039;-73
2024/01/03 04:41:21;;;;;;;9.05;1.95;;;;;;;;;;4937323;29;20075;-73
2024/01/03 04:43:47;;;;;;;10.45;2.25;;;;;;;;;;4937367;29;20049;-74
2024/01/03 04:46:13;;;;;;;11.55;2.22;;;;;;;;;;4934128;29;20039;-73
2024/01/03 04:48:39;;;;;;;14.23;3.55;;;;;;;;;;4935408;29;20047;-73
2024/01/03 04:51:05;;;;;;;11.90;2.00;;;;;;;;;;4920269;29;20052;-74
2024/01/03 04:53:31;;;;;;;12.02;2.25;;;;;;;;;;4902744;29;20511;-74
2024/01/03 04:55:57;;;;;;;11.95;2.40;;;;;;;;;;4896016;29;20392;-73
2024/01/03 04:58:23;;;;;;;11.55;2.55;;;;;;;;;;4904246;29;20040;-74
2024/01/03 05:00:49;;;;;;;11.85;2.28;;;;;;;;;;4919892;29;20074;-73
2024/01/03 05:03:16;;;;;;;13.45;2.20;;;;;;;;;;4921691;29;20039;-74
2024/01/03 05:05:42;;;;;;;9.75;2.08;;;;;;;;;;4905183;28;20047;-73
2024/01/03 05:08:08;;;;;;;12.82;2.15;;;;;;;;;;4937381;29;20077;-74
2024/01/03 05:10:34;;;;;;;12.63;2.47;;;;;;;;;;4935377;29;20039;-73
2024/01/03 05:13:00;;;;;;;11.07;2.50;;;;;;;;;;4935649;29;20035;-73
2024/01/03 05:15:26;;;;;;;8.93;2.38;;;;;;;;;;4919111;29;20074;-74
2024/01/03 05:17:53;;;;;;;7.28;2.00;;;;;;;;;;4919281;29;20043;-74
2024/01/03 05:20:19;;;;;;;13.95;1.90;;;;;;;;;;4919280;29;20492;-74
2024/01/03 05:22:48;;;;;;;15.73;2.30;;;;;;;;;;4932963;29;20381;-74
2024/01/03 05:25:14;;;;;;;10.73;1.90;;;;;;;;;;4935865;29;20125;-74
2024/01/03 05:27:40;;;;;;;8.75;2.50;;;;;;;;;;4933659;29;20043;-74
2024/01/03 05:30:07;;;;;;;11.02;2.40;;;;;;;;;;4932810;29;20051;-74
2024/01/03 05:32:33;;;;;;;13.00;2.30;;;;;;;;;;4914390;29;20074;-74
2024/01/03 05:34:59;;;;;;;17.65;3.50;;;;;;;;;;4935611;28;20496;-74
2024/01/03 05:37:25;;;;;;;19.92;3.83;;;;;;;;;;4919997;29;20043;-74
2024/01/03 05:39:51;;;;;;;19.85;3.95;;;;;;;;;;4935319;29;20130;-75
2024/01/03 05:42:17;;;;;;;22.27;4.28;;;;;;;;;;4937019;29;20135;-74
2024/01/03 05:44:43;;;;;;;18.33;4.13;;;;;;;;;;4920114;29;20051;-74
2024/01/03 05:47:09;;;;;;;21.85;3.63;;;;;;;;;;4921309;29;20048;-74
2024/01/03 05:49:35;;;;;;;24.98;4.22;;;;;;;;;;4918236;29;20392;-74
2024/01/03 05:52:01;;;;;;;16.20;3.85;;;;;;;;;;4905471;29;20039;-74
2024/01/03 05:54:28;;;;;;;28.50;4.55;;;;;;;;;;4936702;29;20040;-74
2024/01/03 05:56:54;;;;;;;30.20;4.20;;;;;;;;;;4937704;29;20511;-74
2024/01/03 05:59:20;;;;;;;23.80;3.60;;;;;;;;;;4938591;28;20050;-74
2024/01/03 06:01:46;;;;;;;25.02;4.13;;;;;;;;;;4907348;29;20074;-73
2024/01/03 06:04:13;;;;;;;25.35;3.78;;;;;;;;;;4922580;29;20492;-74
2024/01/03 06:06:41;;;;;;;19.65;2.90;;;;;;;;;;4920668;29;20051;-74
2024/01/03 06:09:07;;;;;;;26.25;3.63;;;;;;;;;;4930951;29;20043;-74
2024/01/03 06:11:34;;;;;;;18.67;4.25;;;;;;;;;;4920918;29;20095;-74
2024/01/03 06:14:00;;;;;;;17.27;3.83;;;;;;;;;;4933079;29;20047;-74
2024/01/03 06:16:26;;;;;;;20.98;3.97;;;;;;;;;;4939256;29;20039;-74
2024/01/03 06:18:52;;;;;;;20.92;3.50;;;;;;;;;;4934258;29;20135;-74
2024/01/03 06:21:18;;;;;;;19.23;3.60;;;;;;;;;;4916029;29;20028;-73
2024/01/03 06:23:44;;;;;;;20.75;3.33;;;;;;;;;;4925067;29;20126;-74
2024/01/03 06:26:10;;;;;;;27.02;3.63;;;;;;;;;;4907143;29;20051;-74
2024/01/03 06:28:36;;;;;;;17.05;3.33;;;;;;;;;;4908628;29;20047;-74
2024/01/03 06:31:03;;;;;;;26.35;3.75;;;;;;;;;;4923474;29;20070;-74
2024/01/03 06:33:29;;;;;;;19.40;2.90;;;;;;;;;;4920032;29;20083;-74
2024/01/03 06:35:55;;;;;;;19.48;3.65;;;;;;;;;;4936481;29;20392;-74
2024/01/03 06:38:21;;;;;;;21.27;3.58;;;;;;;;;;4936504;29;20047;-74
2024/01/03 06:40:48;;;;;;;18.10;3.42;;;;;;;;;;4920507;29;20039;-74
2024/01/03 06:43:14;;;;;;;20.13;3.33;;;;;;;;;;4931873;29;20050;-75
2024/01/03 06:45:41;;;;;;;14.75;3.13;;;;;;;;;;4888091;29;20188;-73
2024/01/03 06:48:07;;;;;;;21.10;4.13;;;;;;;;;;4902619;29;20048;-72
2024/01/03 06:50:33;;;;;;;22.38;3.10;;;;;;;;;;4913596;29;20039;-72
2024/01/03 06:52:59;;;;;;;15.68;2.97;;;;;;;;;;4913689;29;20044;-72
2024/01/03 06:55:25;;;;;;;25.02;4.00;;;;;;;;;;4934090;29;20492;-72
2024/01/03 06:57:53;;;;;;;22.13;3.78;;;;;;;;;;4915751;29;20044;-72
2024/01/03 07:00:19;;;;;;;25.90;4.10;;;;;;;;;;4933290;29;20146;-72
2024/01/03 07:02:45;;;;;;;20.58;4.75;;;;;;;;;;4916701;29;20044;-72
2024/01/03 07:05:11;;;;;;;21.30;3.50;;;;;;;;;;4917529;29;20044;-73
2024/01/03 07:07:37;;;;;;;30.38;3.53;;;;;;;;;;4916378;29;20501;-73
2024/01/03 07:10:04;;;;;;;27.98;4.32;;;;;;;;;;4909343;29;20039;-73
2024/01/03 07:12:30;;;;;;;27.75;4.07;;;;;;;;;;4908868;29;20083;-72
2024/01/03 07:14:56;;;;;;;25.20;3.50;;;;;;;;;;4924717;29;20776;-72
2024/01/03 07:17:22;;;;;;;29.40;4.68;;;;;;;;;;4911587;29;20045;-72
2024/01/03 07:19:48;;;;;;;30.42;5.28;;;;;;;;;;4919214;29;20500;-72
2024/01/03 07:22:14;;;;;;;27.33;3.78;;;;;;;;;;4926362;29;20044;-73
2024/01/03 07:24:40;;;;;;;25.52;4.07;;;;;;;;;;4916546;29;20048;-72
2024/01/03 07:27:07;;;;;;;17.85;3.50;;;;;;;;;;4930347;29;20110;-73
2024/01/03 07:29:33;;;;;;;16.50;3.00;;;;;;;;;;4903952;29;20135;-73
2024/01/03 07:31:59;;;;;;;16.00;3.30;;;;;;;;;;4935011;29;20047;-72
2024/01/03 07:34:26;;;;;;;22.05;3.95;;;;;;;;;;4933637;29;20047;-72
2024/01/03 07:36:52;;;;;;;19.40;3.10;;;;;;;;;;4928084;29;20035;-72
2024/01/03 07:39:21;;;;;;;17.35;3.30;;;;;;;;;;4932390;29;20118;-73
2024/01/03 07:41:47;;;;;;;18.55;3.45;;;;;;;;;;4928595;29;20047;-73
2024/01/03 07:44:13;;;;;;;21.40;3.72;;;;;;;;;;4931234;29;20197;-72
2024/01/03 07:46:39;;;;;;;24.45;3.72;;;;;;;;;;4928990;29;20047;-73
2024/01/03 07:49:05;;;;;;;15.60;4.18;;;;;;;;;;4932569;29;20102;-72
2024/01/03 07:51:34;;;;;;;20.17;2.85;;;;;;;;;;4920475;29;20392;-72
2024/01/03 07:54:02;;;;;;;25.17;3.65;;;;;;;;;;4930611;29;20122;-72
2024/01/03 07:56:28;;;;;;;24.20;3.63;;;;;;;;;;4912452;28;20341;-72
2024/01/03 07:58:54;;;;;;;21.50;3.13;;;;;;;;;;4924777;29;20043;-72
2024/01/03 08:01:21;;;;;;;15.43;3.08;;;;;;;;;;4929850;29;20047;-74
2024/01/03 08:03:47;;;;;;;20.45;3.45;;;;;;;;;;4927556;29;20496;-74
2024/01/03 08:06:20;;;;;;;19.58;3.20;;;;;;;;;;4920181;29;20083;-74
2024/01/03 08:08:46;;;;;;;17.38;2.67;;;;;;;;;;4927220;29;20134;-73
2024/01/03 08:11:13;;;;;;;10.43;2.28;;;;;;;;;;4924435;29;20047;-73
2024/01/03 08:13:39;;;;;;;19.30;2.47;;;;;;;;;;4926027;29;20043;-73
2024/01/03 08:16:09;;;;;;;12.77;2.33;;;;;;;;;;4911304;29;20559;-72
2024/01/03 08:18:35;;;;;;;12.73;2.38;;;;;;;;;;4925920;29;20043;-72
2024/01/03 08:21:01;;;;;;;11.80;2.25;;;;;;;;;;4909991;29;20035;-71
2024/01/03 08:23:27;;;;;;;11.63;2.03;;;;;;;;;;4924861;29;20049;-72
2024/01/03 08:25:53;;;;;;;8.48;2.20;;;;;;;;;;4913709;29;20106;-72
2024/01/03 08:28:22;;;;;;;16.83;2.33;;;;;;;;;;4923085;29;20071;-72
2024/01/03 08:30:48;;;;;;;17.00;2.90;;;;;;;;;;4913505;29;20051;-72
2024/01/03 08:33:14;;;;;;;14.07;2.80;;;;;;;;;;4895838;29;20074;-72
2024/01/03 08:35:40;;;;;;;11.27;2.58;;;;;;;;;;4906541;29;20114;-72
2024/01/03 08:38:07;;;;;;;18.02;3.05;;;;;;;;;;4926740;29;20051;-72
2024/01/03 08:40:33;;;;;;;15.27;2.97;;;;;;;;;;4927243;29;20054;-72
2024/01/03 08:43:00;;;;;;;17.60;3.40;;;;;;;;;;4925608;29;20122;-72
2024/01/03 08:45:26;;;;;;;14.68;3.33;;;;;;;;;;4918318;29;20048;-72
2024/01/03 08:47:52;;;;;;;20.42;3.35;;;;;;;;;;4923810;29;20097;-72
2024/01/03 08:50:18;;;;;;;24.52;3.33;;;;;;;;;;4918322;29;20044;-72
2024/01/03 08:52:45;;;;;;;18.33;3.10;;;;;;;;;;4918275;29;20043;-72
2024/01/03 08:55:11;;;;;;;21.73;3.55;;;;;;;;;;4918312;29;20052;-72
2024/01/03 08:57:37;;;;;;;15.50;3.58;;;;;;;;;;4918595;29;20040;-74
2024/01/03 09:00:04;;;;;;;20.48;3.25;;;;;;;;;;4918551;29;20043;-74
2024/01/03 09:02:30;;;;;;;19.92;3.28;;;;;;;;;;4918060;29;20035;-74
2024/01/03 09:04:56;;;;;;;19.83;3.47;;;;;;;;;;4922533;29;20511;-75
2024/01/03 09:07:22;;;;;;;26.88;4.07;;;;;;;;;;4937483;29;20047;-75
2024/01/03 09:09:48;;;;;;;24.58;4.18;;;;;;;;;;4937504;29;20146;-75
2024/01/03 09:12:15;;;;;;;21.80;3.83;;;;;;;;;;4937499;29;20047;-75
2024/01/03 09:14:42;;;;;;;18.13;3.15;;;;;;;;;;4937248;29;20058;-75
2024/01/03 09:17:08;;;;;;;15.35;2.70;;;;;;;;;;4921413;29;20039;-76
2024/01/03 09:19:34;;;;;;;22.13;3.22;;;;;;;;;;4921329;29;20082;-75
2024/01/03 09:22:01;;;;;;;15.93;2.92;;;;;;;;;;4911626;29;20099;-75
2024/01/03 09:24:29;;;;;;;20.27;3.17;;;;;;;;;;4918295;29;20508;-75
2024/01/03 09:26:55;;;;;;;20.17;3.25;;;;;;;;;;4902687;29;20043;-75
2024/01/03 09:29:22;;;;;;;22.85;3.88;;;;;;;;;;4917927;29;20135;-75
2024/01/03 09:31:48;;;;;;;15.98;3.20;;;;;;;;;;4902946;29;20522;-75
2024/01/03 09:34:14;;;;;;;15.70;2.45;;;;;;;;;;4921524;29;20050;-75
2024/01/03 09:36:40;;;;;;;16.13;2.13;;;;;;;;;;4922258;29;20051;-73
2024/01/03 09:39:08;;;;;;;14.60;2.75;;;;;;;;;;4923984;29;20432;-75
2024/01/03 09:41:35;;;;;;;12.15;2.60;;;;;;;;;;4921787;29;20040;-75
2024/01/03 09:44:01;;;;;;;16.40;2.83;;;;;;;;;;4921595;29;20408;-75
2024/01/03 09:46:27;;;;;;;23.23;3.25;;;;;;;;;;4921488;29;20404;-75
2024/01/03 09:48:53;;;;;;;16.05;2.60;;;;;;;;;;4921375;29;20048;-75
2024/01/03 09:51:20;;;;;;;17.50;3.75;;;;;;;;;;4921462;29;20396;-75
2024/01/03 09:53:46;;;;;;;21.42;3.00;;;;;;;;;;4921202;29;20047;-75
2024/01/03 09:56:12;;;;;;;20.08;2.63;;;;;;;;;;4933753;29;20487;-72
2024/01/03 09:58:38;;;;;;;20.63;3.35;;;;;;;;;;4940656;29;20403;-73
2024/01/03 10:01:04;;;;;;;14.93;3.45;;;;;;;;;;4939888;29;20094;-73
2024/01/03 10:03:30;;;;;;;11.73;3.33;;;;;;;;;;4939054;29;20050;-73
2024/01/03 10:06:06;;;;;;;16.10;2.25;;;;;;;;;;4939525;29;20035;-73
2024/01/03 10:08:34;;;;;;;7.55;2.03;;;;;;;;;;4922628;29;20090;-72
2024/01/03 10:11:00;;;;;;;10.88;1.98;;;;;;;;;;4940104;29;20085;-73
2024/01/03 10:13:29;;;;;;;12.38;2.42;;;;;;;;;;4939852;29;20043;-73
2024/01/03 10:15:55;;;;;;;11.05;2.00;;;;;;;;;;4940143;28;20075;-73
2024/01/03 10:18:22;;;;;;;7.78;2.13;;;;;;;;;;4940081;29;20369;-73
2024/01/03 10:20:48;;;;;;;12.52;2.80;;;;;;;;;;4939813;29;20081;-73
2024/01/03 10:23:21;;;;;;;16.23;3.13;;;;;;;;;;4939895;29;20039;-73
2024/01/03 10:25:47;;;;;;;14.93;2.88;;;;;;;;;;4924456;29;20047;-73
2024/01/03 10:28:16;;;;;;;16.27;3.20;;;;;;;;;;4939996;29;20042;-72
2024/01/03 10:30:42;;;;;;;14.15;2.53;;;;;;;;;;4924104;29;20392;-73
2024/01/03 10:33:10;;;;;;;15.93;2.47;;;;;;;;;;4939456;29;20063;-73
2024/01/03 10:35:45;;;;;;;19.13;2.92;;;;;;;;;;4923795;29;20213;-73
2024/01/03 10:38:13;;;;;;;20.63;3.97;;;;;;;;;;4939662;29;20048;-73
2024/01/03 10:40:40;;;;;;;15.55;3.20;;;;;;;;;;4923966;29;20535;-73
2024/01/03 10:43:08;;;;;;;17.67;3.83;;;;;;;;;;4939200;28;20500;-73
2024/01/03 10:45:34;;;;;;;18.85;2.95;;;;;;;;;;4929918;29;20052;-73
2024/01/03 10:48:01;;;;;;;16.98;3.70;;;;;;;;;;4920269;29;20106;-73
2024/01/03 10:50:28;;;;;;;21.27;3.05;;;;;;;;;;4920508;29;20051;-72
2024/01/03 10:52:58;;;;;;;17.05;2.85;;;;;;;;;;4920496;29;20051;-72
2024/01/03 10:55:27;;;;;;;18.92;3.08;;;;;;;;;;4920212;29;20103;-79
2024/01/03 10:57:58;;;;;;;13.40;2.90;;;;;;;;;;4928798;29;20046;-73
2024/01/03 11:00:30;;;;;;;20.70;4.18;;;;;;;;;;4930518;29;20031;-72
2024/01/03 11:03:00;;;;;;;18.33;3.58;;;;;;;;;;4933016;29;20044;-73
2024/01/03 11:05:32;;;;;;;22.55;4.30;;;;;;;;;;4933124;29;20097;-73
2024/01/03 11:08:07;;;;;;;;;;;9.40;99.90;;;;;;4924613;29;20074;-73
2024/01/03 11:10:47;;;;;;;22.17;3.53;;;;;;;;;;4906514;29;19918;-72
2024/01/03 11:13:32;;;;;;;18.65;3.67;;;;;;;;;;4906010;29;20126;-72
2024/01/03 11:15:59;;;;;;;20.65;3.53;;;;;;;;;;4927065;29;20042;-72
2024/01/03 11:18:41;;;;;;;12.80;2.75;;;;;;;;;;4942492;29;20043;-74
2024/01/03 11:21:30;;;;;;;20.67;3.23;;;;;;;;;;4932984;29;20102;-75
2024/01/03 11:23:56;;;;;;;12.57;2.80;;;;;;;;;;4933583;29;20106;-75
2024/01/03 11:26:41;;;;;;;14.25;2.97;;;;;;;;;;4925335;29;20563;-75
2024/01/03 11:29:07;;;;;;;16.50;2.45;;;;;;;;;;4926019;29;20040;-75
2024/01/03 11:31:52;;;;;;;20.55;3.05;;;;;;;;;;4925765;29;20101;-75
2024/01/03 11:34:37;;;;;;;14.93;2.92;;;;;;;;;;4900442;29;20080;-75
2024/01/03 11:37:09;;;;;;;13.82;2.33;;;;;;;;;;4880869;29;20037;-75
2024/01/03 11:39:36;;;;;;;15.65;2.95;;;;;;;;;;4881014;29;20115;-75
2024/01/03 11:42:03;;;;;;;12.60;2.75;;;;;;;;;;4897035;29;20036;-75
2024/01/03 11:44:29;;;;;;;14.68;3.08;;;;;;;;;;4883879;29;20112;-75
2024/01/03 11:47:02;;;;;;;19.05;3.25;;;;;;;;;;4901933;29;20054;-75
2024/01/03 11:49:29;;;;;;;15.75;2.33;;;;;;;;;;4897364;29;20055;-75
2024/01/03 11:51:58;;;;;;;18.58;3.65;;;;;;;;;;4898418;29;20100;-75
2024/01/03 11:54:24;;;;;;;19.83;2.80;;;;;;;;;;4899312;29;20040;-75
2024/01/03 11:56:50;;;;;;;17.88;2.55;;;;;;;;;;4868679;29;20048;-74
2024/01/03 11:59:23;;;;;;;17.20;2.67;;;;;;;;;;4898615;29;20032;-74
2024/01/03 12:01:58;;;;;;;;;;;9.80;99.90;;;;;;4884801;29;20045;-75
2024/01/03 12:04:24;;;;;;;18.65;2.78;;;;;;;;;;4880217;29;20277;-75
2024/01/03 12:06:50;;;;;;;18.35;3.63;;;;;;;;;;4902571;29;20056;-74
2024/01/03 12:09:18;;;;;;;22.00;2.80;;;;;;;;;;4896157;29;20079;-75
2024/01/03 12:11:45;;;;;;;13.32;2.33;;;;;;;;;;4865421;29;20043;-75
2024/01/03 12:14:16;;;;;;;20.58;3.63;;;;;;;;;;4896089;29;20044;-75
2024/01/03 12:16:46;;;;;;;14.80;3.28;;;;;;;;;;4880880;29;20040;-75
2024/01/03 12:19:21;;;;;;;14.45;2.10;;;;;;;;;;4881730;29;20055;-75
2024/01/03 12:21:57;;;;;;;12.20;2.63;;;;;;;;;;4888130;29;20036;-74
2024/01/03 12:24:37;;;;;;;11.18;2.53;;;;;;;;;;4900339;29;20084;-74
2024/01/03 12:27:03;;;;;;;11.32;2.42;;;;;;;;;;4882806;29;20048;-74
2024/01/03 12:29:29;;;;;;;12.32;2.42;;;;;;;;;;4896108;29;20044;-75
2024/01/03 12:31:55;;;;;;;12.68;2.00;;;;;;;;;;4899977;29;20108;-74
2024/01/03 12:34:21;;;;;;;15.82;2.88;;;;;;;;;;4906901;29;20369;-74
2024/01/03 12:36:47;;;;;;;16.63;2.60;;;;;;;;;;4923352;29;20044;-75
2024/01/03 12:39:15;;;;;;;10.07;2.38;;;;;;;;;;4926284;29;20031;-78
2024/01/03 12:41:41;;;;;;;14.43;2.80;;;;;;;;;;4918208;29;20046;-75
2024/01/03 12:44:07;;;;;;;12.57;2.40;;;;;;;;;;4918618;29;20047;-74
2024/01/03 12:46:33;;;;;;;12.50;2.40;;;;;;;;;;4918480;29;20047;-74
2024/01/03 12:48:59;;;;;;;10.32;2.25;;;;;;;;;;4918191;29;20051;-73
2024/01/03 12:51:25;;;;;;;14.18;2.28;;;;;;;;;;4918576;29;20047;-73
2024/01/03 12:53:51;;;;;;;14.05;2.33;;;;;;;;;;4917705;29;20129;-73
2024/01/03 12:56:18;;;;;;;14.73;2.13;;;;;;;;;;4918323;29;20385;-72
2024/01/03 12:58:44;;;;;;;13.32;2.70;;;;;;;;;;4918356;29;20055;-73
2024/01/03 13:01:10;;;;;;;17.63;2.45;;;;;;;;;;4918799;29;20086;-72
2024/01/03 13:03:36;;;;;;;17.10;3.70;;;;;;;;;;4918221;29;20078;-73
2024/01/03 13:06:03;;;;;;;16.50;2.60;;;;;;;;;;4888862;29;20181;-73
2024/01/03 13:08:29;;;;;;;11.60;2.72;;;;;;;;;;4922363;29;20127;-73
2024/01/03 13:10:55;;;;;;;17.77;3.50;;;;;;;;;;4906716;29;20047;-73
2024/01/03 13:13:21;;;;;;;13.75;2.78;;;;;;;;;;4922157;29;20051;-72
2024/01/03 13:15:50;;;;;;;20.58;2.60;;;;;;;;;;4906321;29;20567;-73
2024/01/03 13:18:20;;;;;;;23.70;2.47;;;;;;;;;;4922278;29;20043;-73
2024/01/03 13:20:46;;;;;;;18.70;2.90;;;;;;;;;;4922036;29;20523;-73
2024/01/03 13:23:12;;;;;;;14.73;3.10;;;;;;;;;;4921846;29;20051;-72
2024/01/03 13:25:38;;;;;;;18.88;3.20;;;;;;;;;;4906058;29;20044;-73
2024/01/03 13:28:04;;;;;;;18.40;3.17;;;;;;;;;;4922139;29;20134;-72
2024/01/03 13:30:30;;;;;;;17.48;3.97;;;;;;;;;;4938840;29;20054;-72
2024/01/03 13:32:56;;;;;;;15.02;2.30;;;;;;;;;;4921485;29;20547;-72
2024/01/03 13:35:23;;;;;;;19.63;2.85;;;;;;;;;;4921580;29;20051;-72
2024/01/03 13:37:49;;;;;;;19.35;3.15;;;;;;;;;;4921284;29;20040;-72
2024/01/03 13:40:15;;;;;;;15.02;2.40;;;;;;;;;;4937489;28;20035;-73
2024/01/03 13:42:42;;;;;;;10.82;2.75;;;;;;;;;;4929018;29;20035;-72
2024/01/03 13:45:09;;;;;;;12.48;2.63;;;;;;;;;;4927085;29;20501;-72
2024/01/03 13:47:35;;;;;;;15.60;2.45;;;;;;;;;;4946227;29;20053;-72
2024/01/03 13:50:02;;;;;;;16.02;2.60;;;;;;;;;;4930497;29;20083;-72
2024/01/03 13:52:28;;;;;;;13.13;3.20;;;;;;;;;;4921830;29;20375;-73
2024/01/03 13:54:54;;;;;;;17.15;4.28;;;;;;;;;;4912338;29;20393;-72
2024/01/03 13:57:20;;;;;;;15.70;3.22;;;;;;;;;;4929632;29;20115;-73
2024/01/03 13:59:46;;;;;;;10.82;2.53;;;;;;;;;;4938653;29;20524;-73
2024/01/03 14:02:12;;;;;;;15.25;2.55;;;;;;;;;;4940478;29;20043;-73
2024/01/03 14:04:42;;;;;;;15.13;2.58;;;;;;;;;;4957338;29;20078;-73
2024/01/03 14:07:08;;;;;;;15.95;2.40;;;;;;;;;;4940136;29;20047;-73
2024/01/03 14:09:34;;;;;;;18.80;2.95;;;;;;;;;;4924408;29;20484;-72
2024/01/03 14:12:00;;;;;;;11.18;2.72;;;;;;;;;;4940056;29;20039;-73
2024/01/03 14:14:26;;;;;;;11.52;2.75;;;;;;;;;;4924086;29;20074;-73
2024/01/03 14:16:54;;;;;;;11.00;2.50;;;;;;;;;;4924053;28;20480;-73
2024/01/03 14:19:20;;;;;;;11.98;2.28;;;;;;;;;;4939540;29;20126;-73
2024/01/03 14:21:49;;;;;;;12.43;2.10;;;;;;;;;;4939862;29;20050;-73
2024/01/03 14:24:19;;;;;;;12.05;2.30;;;;;;;;;;4939852;29;20054;-73
2024/01/03 14:26:45;;;;;;;11.95;2.40;;;;;;;;;;4906149;29;20044;-73
2024/01/03 14:29:12;;;;;;;11.60;2.55;;;;;;;;;;4889951;29;20078;-73
2024/01/03 14:31:38;;;;;;;17.42;2.75;;;;;;;;;;4905347;29;20047;-73